• Join FlightAware (Why Join?)
  • Login
  • US Flag 
01:18AM EST


 

Airport Tracker/Info


-or-


 

Live Flight TrackerFlight Track Log ✈ SKW7363 ✈ 26-Jan-2014 ✈ KSLC - KTWF

Flight Track Log - Related Links

Times and Time Zones

All times are in EST time to prevent confusion due to time zone crossing. See the SKW7363 flight status page for this flight to view local times or setup timezone preferences in your user account.

Time Position Orientation Groundspeed Altitude Reporting Facility
EST Latitude Longitude Course Direction KTS MPH feet Rate Location/Type
10:29PM 40.8003 -112.0014 313° West 142 163 4,900  Level Salt Lake Center
10:29PM 40.8164 -112.0072 345° North 156 180 5,500 1,380 Climbing Salt Lake Center
10:30PM 40.8500 -112.0581 311° West 210 242 6,900 1,380 Climbing Salt Lake Center
10:31PM 40.8608 -112.0686 324° Northwest 196 226 7,300 1,200 Climbing Salt Lake Center
10:31PM 40.8911 -112.1036 319° Northwest 214 246 8,000 1,080 Climbing Salt Lake Center
10:32PM 40.9075 -112.1203 322° Northwest 215 247 8,400 1,200 Climbing Salt Lake Center
10:32PM 40.9381 -112.1561 318° Northwest 225 259 9,200 1,020 Climbing Salt Lake Center
10:33PM 40.9550 -112.1747 320° Northwest 222 255 9,500 960 Climbing Salt Lake Center
10:34PM 41.0508 -112.2795 313° West  Level FlightAware Approximate
10:34PM 41.0039 -112.2300 320° Northwest 229 264 10,600  Level Salt Lake Center
10:35PM 41.0494 -112.2842 318° Northwest 219 252 11,700 1,020 Climbing Salt Lake Center
10:36PM 41.0944 -112.3411 316° Northwest 225 259 12,800 1,140 Climbing Salt Lake Center
10:37PM 41.1339 -112.4044 310° West 222 255 14,100 1,200 Climbing Salt Lake Center
10:38PM 41.1836 -112.4806 311° West 228 262 15,300 1,020 Climbing Salt Lake Center
10:39PM 41.2286 -112.5431 314° West 234 269 16,300 960 Climbing Salt Lake Center
10:40PM 41.2717 -112.6083 311° West 236 272 17,300 840 Climbing Salt Lake Center
10:41PM 41.3156 -112.6744 311° West 237 273 18,100 840 Climbing Salt Lake Center
10:42PM 41.3586 -112.7406 311° West 237 273 19,100 960 Climbing Salt Lake Center
10:43PM 41.4028 -112.8069 312° West 238 274 20,100 960 Climbing Salt Lake Center
10:44PM 41.4456 -112.8731 311° West 237 273 21,100 840 Climbing Salt Lake Center
10:45PM 41.4881 -112.9369 312° West 230 265 21,900 420 Climbing Salt Lake Center
10:46PM 41.5289 -113.0058 308° West 234 269 22,000  Climbing Salt Lake Center
10:47PM 41.5858 -113.0903 312° West 249 287 22,000  Level Salt Lake Center
10:48PM 41.6342 -113.1636 311° West 259 298 22,000  Level Salt Lake Center
10:49PM 41.6839 -113.2375 312° West 265 305 22,000  Level Salt Lake Center
10:50PM 41.7311 -113.3139 310° West 267 307 22,000  Level Salt Lake Center
10:51PM 41.7814 -113.3861 313° West 266 306 22,000  Level Salt Lake Center
10:52PM 41.8297 -113.4611 311° West 265 305 22,000  Level Salt Lake Center
10:53PM 41.8789 -113.5375 311° West 270 311 22,000  Level Salt Lake Center
10:54PM 41.9269 -113.6128 311° West 268 308 22,000  Level Salt Lake Center
10:55PM 41.9750 -113.6872 311° West 265 305 22,000 -240 Level Salt Lake Center
10:56PM 42.0333 -113.7797 310° West 270 311 21,600 -1,020 Descending Salt Lake Center
10:57PM 42.0825 -113.8531 312° West 266 306 20,000 -1,860 Descending Salt Lake Center
10:58PM 42.1244 -113.9214 310° West 246 283 17,900 -2,040 Descending Salt Lake Center
10:59PM 42.1661 -113.9872 311° West 234 269 15,800 -2,100 Descending Salt Lake Center
11:00PM 42.2047 -114.0467 311° West 220 253 13,600 -2,100 Descending Salt Lake Center
11:01PM 42.2436 -114.1133 308° West 214 246 11,500 -1,740 Descending Salt Lake Center
11:03PM 42.2950 -114.1886 313° West 186 214 9,700 -900 Descending Salt Lake Center
11:04PM 42.3317 -114.2392 314° West 182 209 9,500 -720 Descending Salt Lake Center
11:05PM 42.3819 -114.2311 North 194 223 8,300 -900 Descending Salt Lake Center
11:06PM 42.4353 -114.2067 19° North 196 226 7,700 -600 Descending Salt Lake Center
11:07PM 42.4828 -114.2172 351° North 196 226 7,100 -600 Descending Salt Lake Center